Time;durP1;ratioP1;P1;durP2;ratioP2;P2;SDS_P1;SDS_P2;PMS_P1;PMS_P2;Temp;Humidity;BMP_temperature;BMP_pressure;BME280_temperature;BME280_humidity;BME280_pressure;Samples;Min_cycle;Max_cycle;Signal;HPM_P1;HPM_P2
2021/12/02 00:00:51;;;;;;;1.40;0.80;;;;;;;5.71;90.88;95107.94;5108646;28;20184;-63
2021/12/02 00:03:16;;;;;;;0.73;0.73;;;;;;;5.59;90.85;95104.63;5109058;28;20190;-63
2021/12/02 00:05:42;;;;;;;0.70;0.70;;;;;;;5.76;90.42;95102.81;5094376;28;20224;-64
2021/12/02 00:08:07;;;;;;;0.63;0.63;;;;;;;5.66;91.69;95100.84;5093368;28;20200;-66
2021/12/02 00:10:35;;;;;;;0.83;0.80;;;;;;;5.63;91.98;95100.53;5109534;28;20178;-64
2021/12/02 00:13:01;;;;;;;0.80;0.80;;;;;;;5.72;91.93;95094.72;5093294;28;20183;-64
2021/12/02 00:15:44;;;;;;;0.80;0.80;;;;;;;5.65;92.60;95090.69;5093335;28;20582;-63
2021/12/02 00:23:28;;;;;;;1.50;0.80;;;;;;;5.38;94.18;95093.91;5113167;28;20257;-63
2021/12/02 00:25:56;;;;;;;0.80;0.77;;;;;;;5.41;93.70;95101.22;5095019;28;20702;-63
2021/12/02 00:28:24;;;;;;;0.97;0.80;;;;;;;5.44;93.41;95095.56;5112075;28;20279;-63
2021/12/02 00:30:49;;;;;;;1.73;0.73;;;;;;;5.18;94.93;95096.19;5113430;28;20573;-63
2021/12/02 00:33:16;;;;;;;0.70;0.70;;;;;;;5.26;93.82;95100.97;5112928;28;20180;-64
2021/12/02 00:35:43;;;;;;;2.43;0.80;;;;;;;5.35;93.50;95101.41;5099945;28;20257;-65
2021/12/02 00:38:10;;;;;;;0.80;0.80;;;;;;;5.39;93.24;95107.69;5075313;28;20504;-65
2021/12/02 00:40:36;;;;;;;1.47;0.80;;;;;;;5.33;93.72;95112.03;5112427;28;20167;-63
2021/12/02 00:43:02;;;;;;;0.77;0.70;;;;;;;5.25;94.23;95117.59;5094506;28;20179;-64
2021/12/02 00:45:28;;;;;;;2.63;1.03;;;;;;;5.43;93.49;95116.59;5093714;28;20196;-63
2021/12/02 00:47:54;;;;;;;0.63;0.63;;;;;;;5.18;94.84;95114.38;5108642;28;20234;-64
2021/12/02 00:50:19;;;;;;;0.80;0.80;;;;;;;5.07;96.21;95122.97;5112498;28;20316;-63
2021/12/02 00:52:49;;;;;;;0.83;0.77;;;;;;;5.12;95.87;95114.50;5107436;28;20180;-64
2021/12/02 00:55:15;;;;;;;0.70;0.70;;;;;;;5.17;95.46;95115.38;5101929;28;20616;-62
2021/12/02 00:57:41;;;;;;;0.63;0.63;;;;;;;5.12;94.90;95119.69;5099350;28;20207;-63
2021/12/02 01:00:08;;;;;;;0.93;0.70;;;;;;;4.94;96.34;95118.88;5093838;28;20212;-64
2021/12/02 01:02:34;;;;;;;0.60;0.60;;;;;;;4.99;95.36;95116.38;5092575;28;20218;-64
2021/12/02 01:05:00;;;;;;;0.63;0.63;;;;;;;4.89;95.70;95116.19;5096700;28;20289;-63
2021/12/02 01:07:26;;;;;;;0.80;0.80;;;;;;;4.89;96.05;95112.81;5096545;28;20208;-62
2021/12/02 01:09:52;;;;;;;0.70;0.70;;;;;;;4.60;97.04;95107.59;5096953;28;20200;-63
2021/12/02 01:12:18;;;;;;;0.60;0.60;;;;;;;4.66;96.96;95108.47;5116617;28;20190;-62
2021/12/02 01:14:44;;;;;;;0.60;0.60;;;;;;;4.52;98.13;95105.34;5096814;28;20176;-61
2021/12/02 01:17:09;;;;;;;2.67;0.93;;;;;;;4.61;97.25;95098.00;5116804;28;20207;-62
2021/12/02 01:19:35;;;;;;;0.87;0.70;;;;;;;4.76;96.73;95105.28;5116793;28;20659;-62
2021/12/02 01:22:01;;;;;;;0.50;0.50;;;;;;;4.59;97.91;95100.81;5097041;28;20648;-63
2021/12/02 01:24:28;;;;;;;0.70;0.70;;;;;;;4.46;98.20;95103.66;5096659;28;20169;-65
2021/12/02 01:26:56;;;;;;;0.70;0.70;;;;;;;4.50;98.11;95102.22;5096747;28;20668;-62
2021/12/02 01:29:23;;;;;;;0.60;0.60;;;;;;;4.90;95.34;95114.38;5110041;28;20268;-62
2021/12/02 01:31:52;;;;;;;0.70;0.70;;;;;;;4.79;95.47;95126.34;5099602;28;20212;-63
2021/12/02 01:34:22;;;;;;;1.57;0.73;;;;;;;4.60;96.53;95128.34;5096251;28;20180;-62
2021/12/02 01:36:51;;;;;;;1.20;0.60;;;;;;;4.66;96.68;95131.81;5095903;28;20210;-62
2021/12/02 01:39:16;;;;;;;1.33;0.60;;;;;;;4.88;95.25;95129.38;5096539;28;20261;-61
2021/12/02 01:41:47;;;;;;;0.70;0.70;;;;;;;4.87;94.82;95138.97;5113155;28;20613;-62
2021/12/02 01:44:15;;;;;;;0.60;0.60;;;;;;;4.73;96.04;95132.50;5096326;28;20256;-62
2021/12/02 01:46:42;;;;;;;3.63;0.80;;;;;;;4.76;96.45;95131.22;5084722;28;20195;-62
2021/12/02 01:49:10;;;;;;;0.60;0.60;;;;;;;4.87;95.63;95135.59;5106111;28;20272;-64
2021/12/02 01:51:47;;;;;;;0.70;0.70;;;;;;;4.93;95.73;95140.66;5105979;28;20180;-63
2021/12/02 01:59:34;;;;;;;0.83;0.83;;;;;;;4.87;95.63;95136.38;5326962;23;20228;-68
2021/12/02 02:02:01;;;;;;;1.37;1.00;;;;;;;4.84;95.19;95143.84;5087790;28;20177;-68
2021/12/02 02:04:26;;;;;;;2.77;1.07;;;;;;;4.73;96.27;95149.88;5095228;28;20709;-69
2021/12/02 02:06:58;;;;;;;0.80;0.80;;;;;;;4.61;97.50;95142.09;5095640;28;20185;-68
2021/12/02 02:09:25;;;;;;;0.80;0.80;;;;;;;4.48;98.44;95148.34;5095874;28;20236;-68
2021/12/02 02:11:51;;;;;;;2.47;0.77;;;;;;;4.53;99.11;95139.84;5094212;28;20192;-67
2021/12/02 02:14:17;;;;;;;0.70;0.70;;;;;;;4.55;97.52;95138.63;5095442;28;20656;-68
2021/12/02 02:16:43;;;;;;;1.00;0.70;;;;;;;4.45;99.48;95142.81;5095645;28;20214;-68
2021/12/02 02:19:12;;;;;;;1.63;0.70;;;;;;;4.46;99.03;95145.16;5095425;28;20196;-68
2021/12/02 02:21:37;;;;;;;0.80;0.80;;;;;;;4.45;98.60;95151.41;5094179;28;20185;-68
2021/12/02 02:24:04;;;;;;;0.73;0.73;;;;;;;4.24;99.39;95141.59;5095346;28;20180;-67
2021/12/02 02:26:36;;;;;;;1.27;1.10;;;;;;;4.18;100.00;95134.72;5095561;28;20192;-68
2021/12/02 02:29:05;;;;;;;2.50;0.80;;;;;;;4.13;100.00;95127.63;5094957;28;20299;-68
2021/12/02 02:31:31;;;;;;;0.70;0.70;;;;;;;4.08;100.00;95124.13;5110946;28;20180;-68
2021/12/02 02:33:58;;;;;;;0.70;0.70;;;;;;;4.16;100.00;95123.81;5095396;28;20184;-68
2021/12/02 02:36:27;;;;;;;0.87;0.87;;;;;;;4.15;100.00;95130.78;5095169;28;20189;-68
2021/12/02 02:39:00;;;;;;;2.17;1.17;;;;;;;4.13;100.00;95127.63;5095188;28;20172;-69
2021/12/02 02:41:41;;;;;;;1.03;0.77;;;;;;;4.22;100.00;95132.47;5095437;28;20245;-68
2021/12/02 02:44:08;;;;;;;0.70;0.70;;;;;;;4.25;100.00;95129.41;5094505;28;20191;-68
2021/12/02 02:46:37;;;;;;;2.20;0.80;;;;;;;4.25;100.00;95125.03;5093881;28;20200;-70
2021/12/02 02:49:04;;;;;;;0.70;0.70;;;;;;;4.18;100.00;95132.91;5095107;28;20210;-68
2021/12/02 02:51:31;;;;;;;0.70;0.70;;;;;;;4.13;100.00;95130.22;5094898;28;20199;-68
2021/12/02 02:54:02;;;;;;;0.70;0.70;;;;;;;4.18;100.00;95127.72;5094394;28;20712;-68
2021/12/02 02:56:30;;;;;;;0.90;0.90;;;;;;;4.06;100.00;95126.97;5093815;28;20253;-68
2021/12/02 02:59:59;;;;;;;1.00;1.00;;;;;;;4.06;100.00;95115.81;5094084;28;20225;-68
2021/12/02 03:07:03;;;;;;;0.90;0.90;;;;;;;3.73;100.00;95104.19;5093069;28;20207;-69
2021/12/02 03:17:11;;;;;;;1.00;1.00;;;;;;;3.69;100.00;95112.66;5094633;28;20180;-68
2021/12/02 03:19:47;;;;;;;2.20;1.40;;;;;;;3.75;100.00;95114.34;5094538;28;20554;-68
2021/12/02 03:22:15;;;;;;;1.43;1.03;;;;;;;3.57;100.00;95106.66;5094346;28;20180;-68
2021/12/02 03:24:40;;;;;;;1.40;0.97;;;;;;;3.64;100.00;95102.19;5092748;28;20594;-68
2021/12/02 03:27:06;;;;;;;1.03;0.93;;;;;;;3.55;100.00;95100.94;5093484;28;20260;-68
2021/12/02 03:29:31;;;;;;;1.23;0.90;;;;;;;3.67;100.00;95115.47;5093974;28;20218;-68
2021/12/02 03:31:57;;;;;;;2.17;1.00;;;;;;;3.63;100.00;95110.94;5094394;28;20192;-68
2021/12/02 03:34:22;;;;;;;0.97;0.93;;;;;;;3.71;100.00;95114.00;5092787;28;20181;-68
2021/12/02 03:36:48;;;;;;;1.70;0.80;;;;;;;3.70;100.00;95112.44;5093595;28;20265;-68
2021/12/02 03:39:13;;;;;;;4.27;0.90;;;;;;;3.67;100.00;95106.91;5093878;28;20191;-68
2021/12/02 03:41:40;;;;;;;0.70;0.70;;;;;;;3.67;100.00;95112.91;5093926;28;20184;-67
2021/12/02 03:44:07;;;;;;;1.67;1.00;;;;;;;3.62;100.00;95112.75;5094269;28;20188;-67
2021/12/02 03:46:32;;;;;;;0.87;0.87;;;;;;;3.64;100.00;95100.38;5093716;28;20185;-68
2021/12/02 03:48:59;;;;;;;1.70;0.87;;;;;;;3.67;100.00;95109.50;5093846;28;20215;-68
2021/12/02 03:51:25;;;;;;;0.90;0.90;;;;;;;3.62;100.00;95112.75;5093405;28;20185;-68
2021/12/02 03:53:51;;;;;;;1.00;1.00;;;;;;;3.55;100.00;95112.09;5093589;28;20183;-68
2021/12/02 03:56:16;;;;;;;1.00;0.90;;;;;;;3.64;100.00;95112.53;5093340;28;20184;-68
2021/12/02 03:58:44;;;;;;;0.90;0.90;;;;;;;3.63;100.00;95108.38;5093458;28;20195;-68
2021/12/02 04:01:10;;;;;;;1.30;0.90;;;;;;;3.55;100.00;95108.72;5092710;28;20185;-68
2021/12/02 04:03:37;;;;;;;1.30;1.00;;;;;;;3.54;100.00;95105.31;5093217;28;20208;-68
2021/12/02 04:06:03;;;;;;;0.90;0.90;;;;;;;3.63;100.00;95101.38;5093345;28;20181;-68
2021/12/02 04:08:43;;;;;;;0.90;0.90;;;;;;;3.65;100.00;95093.41;5093326;28;20208;-68
2021/12/02 04:12:00;;;;;;;0.73;0.73;;;;;;;3.66;100.00;95095.78;5092880;28;20169;-68
2021/12/02 04:16:23;;;;;;;1.37;1.00;;;;;;;3.74;100.00;95105.00;5093460;28;20189;-68
2021/12/02 04:18:48;;;;;;;1.27;0.80;;;;;;;3.76;100.00;95106.34;5093461;28;20314;-68
2021/12/02 04:21:14;;;;;;;1.57;1.03;;;;;;;3.65;100.00;95107.13;5092790;28;20267;-68
2021/12/02 04:23:40;;;;;;;0.80;0.80;;;;;;;3.75;100.00;95106.56;5108400;28;20636;-68
2021/12/02 04:26:06;;;;;;;1.17;0.87;;;;;;;3.71;100.00;95103.66;5091993;28;20191;-68
2021/12/02 04:28:31;;;;;;;1.10;1.00;;;;;;;3.67;100.00;95102.53;5093052;28;20888;-68
2021/12/02 04:30:57;;;;;;;0.80;0.80;;;;;;;3.79;100.00;95104.34;5093108;28;20654;-68
2021/12/02 04:33:22;;;;;;;0.77;0.77;;;;;;;3.87;100.00;95102.19;5093069;28;20185;-68
2021/12/02 04:35:48;;;;;;;1.00;0.87;;;;;;;3.85;100.00;95096.44;5092831;28;20177;-67
2021/12/02 04:38:13;;;;;;;0.80;0.80;;;;;;;3.73;100.00;95096.44;5092216;28;20625;-68
2021/12/02 04:40:41;;;;;;;0.90;0.90;;;;;;;3.74;100.00;95094.63;5092407;28;20253;-68
2021/12/02 04:43:07;;;;;;;1.00;1.00;;;;;;;3.85;100.00;95098.22;5092346;28;20616;-68
2021/12/02 04:45:33;;;;;;;1.80;0.90;;;;;;;3.92;100.00;95101.50;5092671;28;20249;-68
2021/12/02 04:47:58;;;;;;;1.00;0.83;;;;;;;3.90;100.00;95095.78;5092606;28;20193;-68
2021/12/02 04:50:24;;;;;;;1.13;0.80;;;;;;;3.77;100.00;95099.38;5083407;28;20655;-68
2021/12/02 04:52:50;;;;;;;1.13;0.83;;;;;;;3.94;100.00;95092.50;5093017;28;20189;-68
2021/12/02 04:55:16;;;;;;;1.23;0.90;;;;;;;3.98;100.00;95098.00;5092528;28;20653;-68
2021/12/02 04:57:41;;;;;;;1.00;1.00;;;;;;;3.91;100.00;95094.72;5092567;28;20184;-68
2021/12/02 05:00:07;;;;;;;1.10;1.10;;;;;;;3.84;100.00;95100.06;5092199;28;20247;-68
2021/12/02 05:02:33;;;;;;;2.35;0.85;;;;;;;3.85;100.00;95099.03;5090589;28;20499;-69
2021/12/02 05:04:58;;;;;;;1.00;1.00;;;;;;;3.95;100.00;95091.50;5092441;28;20643;-68
2021/12/02 05:07:23;;;;;;;2.53;0.90;;;;;;;3.88;100.00;95096.00;5091975;28;20191;-68
2021/12/02 05:09:49;;;;;;;3.03;1.00;;;;;;;3.91;100.00;95098.13;5092319;28;20611;-68
2021/12/02 05:12:14;;;;;;;0.87;0.83;;;;;;;3.97;100.00;95097.22;5092439;28;20242;-68
2021/12/02 05:14:40;;;;;;;1.20;1.10;;;;;;;3.81;100.00;95092.72;5088862;28;20191;-68
2021/12/02 05:17:05;;;;;;;1.00;1.00;;;;;;;3.91;100.00;95084.38;5092201;28;20247;-68
2021/12/02 05:19:31;;;;;;;4.97;1.07;;;;;;;3.88;100.00;95088.22;5090606;28;20196;-68
2021/12/02 05:21:56;;;;;;;0.73;0.73;;;;;;;3.95;100.00;95083.72;5091222;28;20226;-68
2021/12/02 05:24:22;;;;;;;1.53;1.10;;;;;;;3.91;100.00;95092.94;5091902;28;20195;-68
2021/12/02 05:26:47;;;;;;;1.03;0.97;;;;;;;3.85;100.00;95100.81;5091952;28;20218;-68
2021/12/02 05:29:13;;;;;;;2.00;0.90;;;;;;;3.89;100.00;95102.75;5092007;28;20606;-68
2021/12/02 05:31:39;;;;;;;0.80;0.80;;;;;;;3.85;100.00;95099.03;5091751;28;20264;-68
2021/12/02 05:34:04;;;;;;;1.20;0.87;;;;;;;3.96;100.00;95098.22;5092272;28;20230;-68
2021/12/02 05:36:30;;;;;;;0.90;0.90;;;;;;;3.90;100.00;95090.59;5092230;28;20177;-68
2021/12/02 05:38:55;;;;;;;1.10;0.80;;;;;;;3.89;100.00;95092.38;5092327;28;20621;-68
2021/12/02 05:41:20;;;;;;;1.00;0.90;;;;;;;4.03;100.00;95095.53;5091170;28;20245;-68
2021/12/02 05:43:46;;;;;;;0.90;0.70;;;;;;;3.95;100.00;95088.09;5092012;28;20185;-68
2021/12/02 05:46:11;;;;;;;1.00;1.00;;;;;;;4.00;100.00;95085.63;5091868;28;20176;-69
2021/12/02 05:48:37;;;;;;;1.27;0.90;;;;;;;3.80;100.00;95093.72;5092117;28;20273;-68
2021/12/02 05:51:02;;;;;;;0.90;0.90;;;;;;;3.71;100.00;95090.69;5094730;28;20188;-69
2021/12/02 05:53:28;;;;;;;1.40;1.00;;;;;;;3.78;100.00;95082.03;5095086;28;20580;-69
2021/12/02 05:55:53;;;;;;;1.00;0.90;;;;;;;3.84;100.00;95096.69;5081781;28;20644;-68
2021/12/02 05:58:18;;;;;;;0.97;0.90;;;;;;;3.76;100.00;95093.41;5095677;28;20187;-67
2021/12/02 06:00:44;;;;;;;2.27;0.80;;;;;;;3.67;100.00;95084.41;5094729;28;20688;-68
2021/12/02 06:03:09;;;;;;;0.60;0.60;;;;;;;3.63;100.00;95085.06;5095292;28;20254;-68
2021/12/02 06:05:35;;;;;;;0.93;0.80;;;;;;;3.60;100.00;95095.88;5095577;28;20219;-68
2021/12/02 06:08:03;;;;;;;0.73;0.73;;;;;;;3.67;100.00;95093.97;5095535;28;20180;-68
2021/12/02 06:10:29;;;;;;;3.13;0.80;;;;;;;3.78;100.00;95092.38;5095688;28;20226;-68
2021/12/02 06:12:55;;;;;;;0.70;0.70;;;;;;;3.67;100.00;95092.16;5095504;28;20555;-68
2021/12/02 06:15:20;;;;;;;0.70;0.70;;;;;;;3.80;100.00;95095.53;5094836;28;20191;-69
2021/12/02 06:17:46;;;;;;;1.03;0.90;;;;;;;3.73;100.00;95086.06;5095277;28;20189;-68
2021/12/02 06:20:13;;;;;;;0.93;0.87;;;;;;;3.67;100.00;95083.59;5095396;28;20220;-68
2021/12/02 06:22:39;;;;;;;1.60;1.00;;;;;;;3.51;100.00;95085.03;5095057;28;20275;-68
2021/12/02 06:27:37;;;;;;;0.90;0.90;;;;;;;3.48;100.00;95090.69;5090312;28;20180;-68
2021/12/02 06:30:03;;;;;;;0.83;0.83;;;;;;;3.44;100.00;95081.78;5094651;28;20216;-69
2021/12/02 06:32:28;;;;;;;0.80;0.80;;;;;;;3.40;100.00;95083.22;5095054;28;20203;-68
2021/12/02 06:34:54;;;;;;;0.80;0.80;;;;;;;3.38;100.00;95093.03;5094898;28;20177;-68
2021/12/02 06:37:19;;;;;;;0.77;0.77;;;;;;;3.30;100.00;95090.75;5094816;28;20215;-68
2021/12/02 06:39:45;;;;;;;0.70;0.70;;;;;;;3.29;100.00;95091.75;5094944;28;20279;-68
2021/12/02 06:42:11;;;;;;;0.80;0.80;;;;;;;3.15;100.00;95098.16;5093596;28;20180;-68
2021/12/02 06:44:36;;;;;;;3.23;1.00;;;;;;;3.17;100.00;95089.19;5095046;28;20193;-71
2021/12/02 06:47:02;;;;;;;0.93;0.93;;;;;;;3.11;100.00;95090.06;5095211;28;20577;-69
2021/12/02 06:49:27;;;;;;;2.13;1.00;;;;;;;3.19;100.00;95089.72;5094561;28;20295;-67
2021/12/02 06:51:53;;;;;;;0.90;0.90;;;;;;;3.10;100.00;95085.09;5095269;28;20181;-68
2021/12/02 06:54:19;;;;;;;0.70;0.70;;;;;;;3.12;100.00;95081.28;5095060;28;20216;-67
2021/12/02 06:56:44;;;;;;;1.43;1.33;;;;;;;3.08;100.00;95094.88;5094492;28;20539;-68
2021/12/02 06:59:10;;;;;;;1.50;1.40;;;;;;;3.14;100.00;95084.44;5093798;28;20449;-68
2021/12/02 07:01:35;;;;;;;0.90;0.90;;;;;;;3.19;100.00;95094.13;5092763;28;20231;-68
2021/12/02 07:04:01;;;;;;;0.90;0.90;;;;;;;3.07;100.00;95099.25;5094056;28;20208;-68
2021/12/02 07:06:26;;;;;;;0.90;0.90;;;;;;;3.16;100.00;95099.75;5094705;28;20657;-68
2021/12/02 07:08:51;;;;;;;1.13;1.03;;;;;;;3.18;100.00;95100.28;5094072;28;20231;-69
2021/12/02 07:11:17;;;;;;;0.90;0.90;;;;;;;3.08;100.00;95092.28;5094835;28;20689;-68
2021/12/02 07:13:42;;;;;;;1.80;0.97;;;;;;;3.11;100.00;95103.00;5093928;28;20578;-68
2021/12/02 07:16:08;;;;;;;1.00;1.00;;;;;;;3.27;100.00;95109.34;5093560;28;20185;-67
2021/12/02 07:18:38;;;;;;;1.70;1.23;;;;;;;3.20;100.00;95112.03;5093591;28;20188;-69
2021/12/02 07:21:03;;;;;;;1.23;1.13;;;;;;;3.20;100.00;95109.44;5093995;28;20652;-69
2021/12/02 07:23:28;;;;;;;1.10;1.10;;;;;;;3.27;100.00;95107.53;5093673;28;20181;-69
2021/12/02 07:25:57;;;;;;;1.00;1.00;;;;;;;3.28;100.00;95106.53;5094238;28;20172;-69
2021/12/02 07:28:23;;;;;;;1.10;1.10;;;;;;;3.34;100.00;95108.22;5092486;28;20414;-69
2021/12/02 07:30:53;;;;;;;1.10;1.00;;;;;;;3.67;100.00;95112.09;5088862;28;20410;-69
2021/12/02 07:33:19;;;;;;;1.20;1.10;;;;;;;3.90;100.00;95112.09;5092103;28;20409;-69
2021/12/02 07:35:45;;;;;;;1.48;1.00;;;;;;;3.85;100.00;95111.97;5092616;28;20481;-69
2021/12/02 07:38:10;;;;;;;3.43;1.43;;;;;;;4.34;100.00;95112.50;5092272;28;20932;-65
2021/12/02 07:40:39;;;;;;;1.10;1.00;;;;;;;4.40;100.00;95116.78;5092635;28;20429;-70
2021/12/02 07:43:05;;;;;;;0.80;0.80;;;;;;;4.39;98.52;95123.78;5074741;28;20405;-70
2021/12/02 07:45:34;;;;;;;1.60;0.90;;;;;;;4.62;98.09;95124.75;5092653;28;20385;-72
2021/12/02 07:48:05;;;;;;;1.13;0.80;;;;;;;4.71;97.24;95125.94;5092408;28;20401;-69
2021/12/02 07:50:33;;;;;;;1.02;0.90;;;;;;;4.82;96.13;95123.31;5091348;28;20412;-69
2021/12/02 07:53:01;;;;;;;1.00;1.00;;;;;;;4.88;96.00;95131.97;5091610;28;20382;-69
2021/12/02 07:55:29;;;;;;;1.05;1.05;;;;;;;4.76;94.45;95120.84;5091063;28;20405;-69
2021/12/02 07:57:54;;;;;;;1.30;1.00;;;;;;;4.75;94.54;95121.88;5090186;28;20389;-69
2021/12/02 08:00:26;;;;;;;1.80;1.00;;;;;;;4.70;94.00;95119.97;5086817;28;20422;-70
2021/12/02 08:02:53;;;;;;;1.10;1.10;;;;;;;4.61;94.41;95121.34;5079447;28;20390;-69
2021/12/02 08:05:24;;;;;;;1.48;1.10;;;;;;;4.15;97.30;95123.00;5091619;28;20379;-69
2021/12/02 08:07:51;;;;;;;1.83;1.17;;;;;;;4.15;98.05;95130.00;5089529;28;20389;-68
2021/12/02 08:10:19;;;;;;;1.10;1.10;;;;;;;4.33;96.52;95132.47;5089585;28;20416;-69
2021/12/02 08:12:47;;;;;;;1.00;1.00;;;;;;;4.35;97.28;95130.41;5091189;28;20447;-69
2021/12/02 08:15:15;;;;;;;1.20;1.10;;;;;;;4.34;97.09;95131.47;5084345;28;20449;-69
2021/12/02 08:17:40;;;;;;;0.90;0.90;;;;;;;4.44;96.50;95129.06;5082759;28;20417;-69
2021/12/02 08:20:06;;;;;;;1.05;1.05;;;;;;;4.53;96.04;95132.06;5091932;28;20390;-69
2021/12/02 08:22:32;;;;;;;0.90;0.90;;;;;;;4.49;96.42;95129.16;5091851;28;20386;-68
2021/12/02 08:24:58;;;;;;;1.75;1.25;;;;;;;4.55;95.38;95130.84;5090632;28;20415;-69
2021/12/02 08:27:24;;;;;;;1.38;1.05;;;;;;;4.61;95.07;95144.72;5091793;28;20381;-69
2021/12/02 08:29:49;;;;;;;0.90;0.90;;;;;;;4.51;95.98;95139.31;5091526;28;20433;-69
2021/12/02 08:32:15;;;;;;;2.40;0.97;;;;;;;4.46;96.50;95145.16;5092799;28;20263;-69
2021/12/02 08:34:40;;;;;;;1.03;0.93;;;;;;;4.49;96.54;95149.91;5091894;28;20190;-69
2021/12/02 08:37:08;;;;;;;1.45;1.20;;;;;;;4.66;95.75;95149.19;5090531;28;20390;-69
2021/12/02 08:39:34;;;;;;;1.25;1.15;;;;;;;4.79;95.58;95159.34;5091466;28;20905;-70
2021/12/02 08:42:00;;;;;;;1.20;1.10;;;;;;;4.95;95.33;95158.59;5090829;28;20382;-69
2021/12/02 08:44:26;;;;;;;1.20;1.20;;;;;;;5.04;94.49;95159.78;5090658;28;20408;-69
2021/12/02 08:46:53;;;;;;;1.00;1.00;;;;;;;5.57;93.23;95166.44;5090990;28;20394;-70
2021/12/02 08:49:20;;;;;;;1.20;1.10;;;;;;;5.69;91.90;95149.75;5091070;28;20785;-70
2021/12/02 08:51:46;;;;;;;1.10;1.10;;;;;;;5.61;92.80;95154.56;5089223;28;20738;-69
2021/12/02 08:54:12;;;;;;;1.13;1.13;;;;;;;5.81;91.33;95149.66;5091453;28;20919;-70
2021/12/02 08:56:39;;;;;;;1.17;1.15;;;;;;;5.88;90.11;95147.72;5091400;28;20394;-70
2021/12/02 08:59:04;;;;;;;1.10;1.10;;;;;;;5.77;90.36;95148.56;5090263;28;20413;-69
2021/12/02 09:01:30;;;;;;;1.30;1.20;;;;;;;5.86;89.05;95154.94;5090323;28;20396;-70
2021/12/02 09:03:56;;;;;;;1.50;1.20;;;;;;;5.43;90.60;95148.56;5091230;28;20531;-69
2021/12/02 09:06:23;;;;;;;1.60;1.30;;;;;;;5.56;90.64;95144.88;5091257;28;20858;-70
2021/12/02 09:08:50;;;;;;;1.30;1.20;;;;;;;5.75;89.24;95145.41;5091174;28;20420;-69
2021/12/02 09:11:16;;;;;;;1.55;1.27;;;;;;;5.98;88.50;95139.28;5091201;28;20398;-70
2021/12/02 09:13:42;;;;;;;1.63;1.02;;;;;;;5.69;88.76;95136.75;5076506;28;20390;-70
2021/12/02 09:16:08;;;;;;;1.00;1.00;;;;;;;5.85;89.42;95140.41;5091470;28;20429;-70
2021/12/02 09:18:33;;;;;;;1.02;1.02;;;;;;;5.84;88.53;95136.22;5091360;28;20421;-70
2021/12/02 09:20:59;;;;;;;1.67;1.20;;;;;;;5.96;88.43;95147.34;5091070;28;20433;-69
2021/12/02 09:23:25;;;;;;;1.50;1.40;;;;;;;5.73;88.90;95142.28;5090567;28;20412;-69
2021/12/02 09:25:51;;;;;;;1.27;1.20;;;;;;;5.70;89.75;95150.53;5088250;28;20398;-69
2021/12/02 09:28:17;;;;;;;1.27;1.20;;;;;;;5.75;89.47;95142.81;5094208;28;20733;-69
2021/12/02 09:30:42;;;;;;;1.20;1.20;;;;;;;5.78;89.02;95142.34;5095317;28;20718;-69
2021/12/02 09:33:08;;;;;;;1.15;1.15;;;;;;;5.86;88.94;95150.53;5076667;28;20793;-69
2021/12/02 09:35:35;;;;;;;1.40;1.30;;;;;;;5.83;89.70;95156.22;5087444;28;20735;-69
2021/12/02 09:38:01;;;;;;;1.50;1.40;;;;;;;5.90;88.77;95153.50;5093900;28;20738;-69
2021/12/02 09:40:26;;;;;;;1.33;1.23;;;;;;;5.82;89.41;95151.25;5094559;28;20397;-69
2021/12/02 09:42:53;;;;;;;1.80;1.33;;;;;;;5.80;89.61;95151.47;5093438;28;20811;-69
2021/12/02 09:45:18;;;;;;;1.25;1.15;;;;;;;6.05;88.26;95142.53;5094897;28;20386;-69
2021/12/02 09:47:47;;;;;;;1.08;1.08;;;;;;;5.96;88.79;95147.34;5094217;28;20888;-69
2021/12/02 09:50:24;;;;;;;1.40;1.10;;;;;;;5.77;89.89;95145.97;5094450;28;20874;-69
2021/12/02 09:52:51;;;;;;;1.10;1.10;;;;;;;5.88;89.10;95133.94;5094260;28;20869;-69
2021/12/02 09:55:22;;;;;;;1.00;1.00;;;;;;;5.88;89.01;95139.94;5094059;28;20425;-69
2021/12/02 09:57:54;;;;;;;1.05;1.05;;;;;;;6.04;89.21;95136.53;5094479;28;20409;-69
2021/12/02 10:00:36;;;;;;;1.48;1.30;;;;;;;6.12;89.13;95130.94;5093830;28;20881;-69
2021/12/02 10:03:05;;;;;;;1.30;1.20;;;;;;;6.02;89.27;95130.78;5094455;28;20410;-69
2021/12/02 10:05:39;;;;;;;1.00;1.00;;;;;;;6.15;88.85;95130.44;5088295;28;20398;-69
2021/12/02 10:08:08;;;;;;;1.00;1.00;;;;;;;6.06;89.03;95134.50;5094060;28;20742;-69
2021/12/02 10:10:39;;;;;;;1.27;1.08;;;;;;;5.90;88.17;95143.09;5094678;28;20386;-69
2021/12/02 10:13:45;;;;;;;1.13;1.10;;;;;;;5.84;89.39;95141.41;5094574;28;20419;-69
2021/12/02 10:16:07;;;;;;;1.10;1.10;;;;;;;5.90;89.84;95150.91;5092759;28;20788;-70
2021/12/02 10:19:28;;;;;;;1.08;1.08;;;;;;;5.76;90.40;95163.38;5090753;28;20410;-69
2021/12/02 10:24:11;;;;;;;0.80;0.80;;;;;;;3.76;100.00;95173.72;5094074;28;20746;-69
2021/12/02 10:26:43;;;;;;;0.60;0.60;;;;;;;3.45;100.00;95166.25;5093778;28;20451;-69
2021/12/02 10:29:11;;;;;;;0.80;0.80;;;;;;;3.00;100.00;95170.25;5093330;28;20422;-69
2021/12/02 10:31:38;;;;;;;1.58;0.80;;;;;;;3.25;100.00;95160.53;5092525;28;20505;-70
2021/12/02 10:34:07;;;;;;;0.80;0.80;;;;;;;3.07;100.00;95158.00;5093895;28;20446;-70
2021/12/02 10:36:43;;;;;;;0.90;0.90;;;;;;;3.15;100.00;95165.47;5093736;28;20482;-69
2021/12/02 10:39:23;;;;;;;0.80;0.80;;;;;;;3.05;100.00;95160.03;5089365;28;20421;-69
2021/12/02 10:42:05;;;;;;;0.70;0.70;;;;;;;2.98;100.00;95154.94;5093372;28;20727;-69
2021/12/02 10:44:35;;;;;;;1.00;1.00;;;;;;;3.07;100.00;95152.81;5093403;28;20386;-69
2021/12/02 10:47:11;;;;;;;1.45;1.13;;;;;;;3.21;100.00;95152.44;5091037;28;20394;-69
2021/12/02 10:49:48;;;;;;;1.00;1.00;;;;;;;3.49;100.00;95153.63;5093376;28;20410;-69
2021/12/02 10:52:28;;;;;;;1.15;1.05;;;;;;;3.23;100.00;95149.63;5093478;28;20393;-70
2021/12/02 10:55:05;;;;;;;1.00;1.00;;;;;;;3.42;100.00;95151.13;5093450;28;20402;-69
2021/12/02 10:57:33;;;;;;;1.20;0.93;;;;;;;3.57;100.00;95150.69;5091651;28;20415;-69
2021/12/02 11:00:00;;;;;;;0.80;0.80;;;;;;;3.38;100.00;95146.63;5103693;28;20955;-69
2021/12/02 11:02:28;;;;;;;0.90;0.90;;;;;;;3.76;100.00;95147.81;5092467;28;20850;-69
2021/12/02 11:04:56;;;;;;;0.73;0.73;;;;;;;3.62;100.00;95154.19;5093150;28;20841;-69
2021/12/02 11:07:33;;;;;;;0.95;0.85;;;;;;;3.19;100.00;95159.63;5076816;28;20428;-70
2021/12/02 11:10:01;;;;;;;0.82;0.80;;;;;;;3.30;100.00;95148.50;5093310;28;20417;-69
2021/12/02 11:12:30;;;;;;;0.70;0.70;;;;;;;3.29;100.00;95139.16;5093624;28;20810;-69
2021/12/02 11:15:01;;;;;;;0.75;0.75;;;;;;;3.25;100.00;95156.16;5092453;28;20880;-69
2021/12/02 11:17:32;;;;;;;0.90;0.80;;;;;;;3.27;100.00;95154.16;5094423;28;20261;-69
2021/12/02 11:20:00;;;;;;;0.80;0.80;;;;;;;3.24;100.00;95158.94;5094279;28;20204;-69
2021/12/02 11:22:28;;;;;;;2.00;0.77;;;;;;;2.70;100.00;95157.28;5094378;28;20185;-69
2021/12/02 11:24:53;;;;;;;0.77;0.77;;;;;;;2.58;100.00;95146.88;5093633;28;20183;-69
2021/12/02 11:27:27;;;;;;;0.80;0.80;;;;;;;2.81;100.00;95153.97;5094311;28;20192;-69
2021/12/02 11:29:53;;;;;;;0.70;0.70;;;;;;;2.74;100.00;95150.66;5086109;28;20228;-69
2021/12/02 11:32:34;;;;;;;0.80;0.80;;;;;;;2.58;100.00;95153.84;5093952;28;20180;-69
2021/12/02 11:35:12;;;;;;;1.00;1.00;;;;;;;2.54;100.00;95156.09;5093808;28;20625;-69
2021/12/02 11:37:39;;;;;;;0.90;0.90;;;;;;;2.27;100.00;95153.00;5093359;28;20176;-69
2021/12/02 11:40:26;;;;;;;1.40;1.07;;;;;;;2.43;100.00;95152.41;5093819;28;20180;-69
2021/12/02 11:42:53;;;;;;;0.90;0.90;;;;;;;2.36;100.00;95156.06;5093772;28;20271;-69
2021/12/02 11:45:21;;;;;;;1.02;1.02;;;;;;;2.42;100.00;95157.81;5092126;28;20477;-69
2021/12/02 11:47:47;;;;;;;0.90;0.90;;;;;;;2.55;100.00;95157.66;5075211;28;20424;-69
2021/12/02 11:50:15;;;;;;;0.93;0.93;;;;;;;2.52;100.00;95158.06;5091510;28;20347;-70
2021/12/02 11:52:42;;;;;;;0.90;0.90;;;;;;;2.72;100.00;95155.28;5093576;28;20212;-69
2021/12/02 11:55:29;;;;;;;1.00;1.00;;;;;;;2.73;100.00;95159.44;5092984;28;21905;-69
2021/12/02 11:57:55;;;;;;;0.90;0.90;;;;;;;2.94;100.00;95151.22;5082219;28;20173;-69
2021/12/02 12:00:23;;;;;;;1.17;1.10;;;;;;;2.89;100.00;95158.84;5082088;28;20420;-70
2021/12/02 12:02:48;;;;;;;2.70;1.17;;;;;;;2.75;100.00;95162.59;5071862;28;20407;-69
2021/12/02 12:05:14;;;;;;;1.10;1.10;;;;;;;2.88;100.00;95163.22;5073037;28;20234;-69
2021/12/02 12:07:46;;;;;;;1.10;1.10;;;;;;;2.95;100.00;95163.16;5075733;28;20177;-70
2021/12/02 12:10:16;;;;;;;0.90;0.90;;;;;;;3.25;100.00;95163.91;5080634;28;20193;-70